createdAt,value
2023-01-06T00:01:03.899Z,8.3
2023-01-06T00:06:56.164Z,9.8
2023-01-06T00:12:46.741Z,9.9
2023-01-06T00:18:37.251Z,7.9
2023-01-06T00:24:30.168Z,12.6
2023-01-06T00:30:21.529Z,7.3
2023-01-06T00:36:13.112Z,8.1
2023-01-06T00:42:04.840Z,7.7
2023-01-06T00:47:56.985Z,6.4
2023-01-06T00:53:48.097Z,7.4
2023-01-06T00:59:39.366Z,6.3
2023-01-06T01:05:29.962Z,6.3
2023-01-06T01:11:21.540Z,5.9
2023-01-06T01:17:12.219Z,5.4
2023-01-06T01:23:04.308Z,5.7
2023-01-06T01:28:54.783Z,7.3
2023-01-06T01:34:48.060Z,5
2023-01-06T01:40:39.603Z,6.9
2023-01-06T01:46:30.787Z,7.3
2023-01-06T01:52:22.523Z,8.6
2023-01-06T01:58:12.645Z,5.8
2023-01-06T02:04:03.785Z,6.2
2023-01-06T02:10:12.634Z,4.4
2023-01-06T02:16:07.940Z,3.7
2023-01-06T02:21:58.454Z,6
2023-01-06T02:27:49.799Z,5
2023-01-06T02:33:40.630Z,4.9
2023-01-06T02:39:33.519Z,6.7
2023-01-06T02:45:24.043Z,4.9
2023-01-06T02:51:16.054Z,4.6
2023-01-06T02:57:06.879Z,4.6
2023-01-06T03:02:57.579Z,5.1
2023-01-06T03:08:47.915Z,4.5
2023-01-06T03:14:42.805Z,4.9
2023-01-06T03:20:33.200Z,4
2023-01-06T03:26:26.106Z,4.1
2023-01-06T03:32:18.063Z,3.3
2023-01-06T03:38:08.963Z,3.1
2023-01-06T03:43:59.784Z,3.1
2023-01-06T03:49:51.763Z,3.7
2023-01-06T03:55:42.724Z,3.1
2023-01-06T04:01:34.188Z,2.5
2023-01-06T04:07:25.405Z,4.1
2023-01-06T04:13:17.251Z,1.8
2023-01-06T04:19:08.485Z,2.6
2023-01-06T04:24:59.507Z,2.2
2023-01-06T04:30:50.738Z,3.2
2023-01-06T04:36:42.417Z,3.3
2023-01-06T04:42:33.032Z,3.3
2023-01-06T04:48:25.248Z,2.7
2023-01-06T04:54:17.378Z,1.3
2023-01-06T05:00:10.039Z,2.7
2023-01-06T05:06:01.377Z,2.8
2023-01-06T05:11:53.449Z,1.2
2023-01-06T05:17:45.613Z,3.5
2023-01-06T05:23:36.712Z,3.7
2023-01-06T05:29:28.885Z,2.7
2023-01-06T05:35:20.695Z,1.9
2023-01-06T05:41:11.993Z,2
2023-01-06T05:48:11.117Z,2.3
2023-01-06T05:54:00.940Z,2.7
2023-01-06T05:59:52.310Z,4.1
2023-01-06T06:05:43.289Z,4.8
2023-01-06T06:11:35.117Z,2.4
2023-01-06T06:17:26.376Z,2.5
2023-01-06T06:23:17.845Z,3.4
2023-01-06T06:29:10.190Z,3.4
2023-01-06T06:35:02.079Z,3.7
2023-01-06T06:40:54.432Z,4.4
2023-01-06T06:46:46.080Z,4.2
2023-01-06T06:52:37.101Z,2.4
2023-01-06T06:58:28.606Z,2.3
2023-01-06T07:04:20.590Z,3.4
2023-01-06T07:10:13.975Z,4
2023-01-06T07:16:06.423Z,2.9
2023-01-06T07:21:57.591Z,4
2023-01-06T07:27:50.379Z,2.3
2023-01-06T07:33:40.882Z,2
2023-01-06T07:39:32.001Z,2.1
2023-01-06T07:45:23.486Z,2.7
2023-01-06T07:51:15.918Z,2
2023-01-06T07:57:07.742Z,2.3
2023-01-06T08:03:00.108Z,4.1
2023-01-06T08:08:52.064Z,2.3
2023-01-06T08:14:42.190Z,3.1
2023-01-06T08:20:33.492Z,2.5
2023-01-06T08:26:25.106Z,2.8
2023-01-06T08:32:18.029Z,3.3
2023-01-06T08:38:07.920Z,2.9
2023-01-06T08:44:01.521Z,2.6
2023-01-06T08:49:52.288Z,1.7
2023-01-06T08:55:44.807Z,6.6
2023-01-06T09:01:36.974Z,3.9
2023-01-06T09:07:28.391Z,4.6
2023-01-06T09:13:19.599Z,3.6
2023-01-06T09:19:14.602Z,3.6
2023-01-06T09:25:09.664Z,1.1
2023-01-06T09:31:00.496Z,4.4
2023-01-06T09:36:51.785Z,2.1
2023-01-06T09:42:42.644Z,1
2023-01-06T09:48:33.250Z,1.1
2023-01-06T09:54:24.335Z,0.9
2023-01-06T10:00:18.971Z,1.6
2023-01-06T10:06:11.814Z,0.5
2023-01-06T10:12:03.403Z,1.4
2023-01-06T10:17:54.189Z,1.3
2023-01-06T10:23:45.736Z,1.1
2023-01-06T10:29:37.006Z,1.6
2023-01-06T10:35:27.962Z,1.1
2023-01-06T10:41:18.475Z,1.3
2023-01-06T10:47:11.092Z,0.9
2023-01-06T10:53:02.251Z,1.2
2023-01-06T10:58:53.249Z,1.2
2023-01-06T11:04:45.380Z,0.6
2023-01-06T11:10:35.883Z,1.5
2023-01-06T11:16:26.878Z,2.1
2023-01-06T11:22:20.635Z,0.6
2023-01-06T11:28:11.355Z,0.5
2023-01-06T11:34:02.396Z,1.3
2023-01-06T11:40:14.782Z,1.2
2023-01-06T11:46:03.443Z,1.2
2023-01-06T11:51:55.036Z,0.6
2023-01-06T11:57:49.179Z,1.1
2023-01-06T12:03:39.519Z,2.4
2023-01-06T12:09:30.404Z,2.1
2023-01-06T12:15:21.449Z,1.8
2023-01-06T12:21:12.501Z,1.8
2023-01-06T12:27:03.021Z,0.6
2023-01-06T12:32:53.387Z,1.1
2023-01-06T12:38:44.583Z,0.8
2023-01-06T12:44:34.918Z,0.7
2023-01-06T12:50:25.343Z,0.8
2023-01-06T12:56:16.130Z,0.9
2023-01-06T13:02:07.330Z,0.9
2023-01-06T13:08:00.039Z,1
2023-01-06T13:13:50.534Z,0.7
2023-01-06T13:19:42.814Z,0.7
2023-01-06T13:37:13.651Z,0.4
2023-01-06T13:43:01.552Z,0.4
2023-01-06T13:48:51.012Z,1.6
2023-01-06T13:55:06.245Z,1.1
2023-01-06T14:02:08.900Z,0.9
2023-01-06T14:07:59.009Z,0.3
2023-01-06T14:13:50.580Z,0.7
2023-01-06T14:19:42.217Z,0.3
2023-01-06T14:26:46.698Z,0.9
2023-01-06T14:32:38.963Z,1.2
2023-01-06T14:38:31.015Z,0.7
2023-01-06T14:59:08.158Z,1.4
2023-01-06T20:01:57.735Z,3.2
2023-01-06T20:08:18.402Z,1.7
2023-01-06T20:14:29.803Z,1.7
2023-01-06T20:20:21.503Z,3.2
2023-01-06T20:26:18.702Z,2.5
2023-01-06T20:32:10.145Z,1.9
2023-01-06T20:37:59.816Z,2.1
2023-01-06T20:43:52.347Z,2.6
2023-01-06T20:49:45.308Z,3.3
2023-01-06T20:55:37.431Z,5.7
2023-01-06T21:01:57.364Z,2
2023-01-06T21:08:11.680Z,2.6
2023-01-06T21:14:10.249Z,2
2023-01-06T21:20:04.965Z,1.4
2023-01-06T21:32:00.626Z,2.7
2023-01-06T21:38:13.643Z,1.5
2023-01-06T21:44:04.711Z,1
2023-01-06T21:49:55.395Z,3.2
2023-01-06T21:55:46.906Z,2
2023-01-06T22:01:57.309Z,1.1
2023-01-06T22:14:24.997Z,1.6
2023-01-06T22:20:20.888Z,2.6
2023-01-06T22:26:12.879Z,2.4
2023-01-06T22:32:07.627Z,1.4
2023-01-06T22:37:59.080Z,1.6
2023-01-06T22:43:53.543Z,2.8
2023-01-06T22:49:54.373Z,2.8
2023-01-06T22:55:44.568Z,3.1
2023-01-06T23:01:40.898Z,3.4
2023-01-06T23:08:15.756Z,2.9
2023-01-06T23:26:56.986Z,3.8
2023-01-06T23:33:18.043Z,3.5
2023-01-06T23:39:25.928Z,2.5
2023-01-06T23:45:32.504Z,3.6
2023-01-06T23:51:44.080Z,2.5
